Time;durP1;ratioP1;P1;durP2;ratioP2;P2;SDS_P1;SDS_P2;PMS_P1;PMS_P2;Temp;Humidity;BMP_temperature;BMP_pressure;BME280_temperature;BME280_humidity;BME280_pressure;Samples;Min_cycle;Max_cycle;Signal;HPM_P1;HPM_P2
2021/09/23 00:00:14;;;;;;;;;;;;;;;10.27;80.32;97668.13;30001;983;1884;-67
2021/09/23 00:00:50;;;;;;;;;;;;;;;10.27;80.37;97665.44;30001;983;1880;-64
2021/09/23 00:01:26;;;;;;;;;;;;;;;10.27;80.70;97673.56;30001;983;1862;-62
2021/09/23 00:01:57;;;;;;;;;;;;;;;10.26;80.48;97671.94;30001;983;1876;-64
2021/09/23 00:04:31;;;;;;;;;;;;;;;10.22;80.48;97673.56;30001;982;1885;-64
2021/09/23 00:05:02;;;;;;;;;;;;;;;10.21;80.39;97680.88;30001;983;1858;-64
2021/09/23 00:05:33;;;;;;;;;;;;;;;10.21;80.46;97680.06;30001;983;1880;-64
2021/09/23 00:06:04;;;;;;;;;;;;;;;10.21;80.40;97675.47;30001;983;1880;-64
2021/09/23 00:06:35;;;;;;;;;;;;;;;10.20;80.72;97683.87;30001;983;1862;-65
2021/09/23 00:07:06;;;;;;;;;;;;;;;10.20;80.57;97678.44;30001;983;1876;-65
2021/09/23 00:07:38;;;;;;;;;;;;;;;10.18;80.39;97681.38;30001;983;1884;-67
2021/09/23 00:08:09;;;;;;;;;;;;;;;10.20;80.36;97675.72;30001;983;1880;-63
2021/09/23 00:08:40;;;;;;;;;;;;;;;10.18;80.39;97686.81;30001;983;1884;-63
2021/09/23 00:09:11;;;;;;;;;;;;;;;10.19;80.50;97677.63;30001;983;1880;-65
2021/09/23 00:09:42;;;;;;;;;;;;;;;10.19;80.37;97671.34;30001;983;1885;-66
2021/09/23 00:10:15;;;;;;;;;;;;;;;10.19;80.54;97688.47;30001;982;1880;-63
2021/09/23 00:10:46;;;;;;;;;;;;;;;10.20;80.18;97684.69;30001;982;1862;-63
2021/09/23 00:11:17;;;;;;;;;;;;;;;10.20;80.31;97681.16;30001;982;1876;-64
2021/09/23 00:11:51;;;;;;;;;;;;;;;10.19;80.30;97682.22;30001;982;1885;-66
2021/09/23 00:12:22;;;;;;;;;;;;;;;10.18;80.47;97681.38;30001;982;1880;-67
2021/09/23 00:12:53;;;;;;;;;;;;;;;10.19;80.22;97682.22;30001;983;1884;-63
2021/09/23 00:13:25;;;;;;;;;;;;;;;10.19;80.18;97682.22;30001;983;1880;-67
2021/09/23 00:13:58;;;;;;;;;;;;;;;10.18;80.37;97686.00;30001;983;1884;-63
2021/09/23 00:14:29;;;;;;;;;;;;;;;10.17;80.22;97678.94;30001;983;1858;-64
2021/09/23 00:15:02;;;;;;;;;;;;;;;10.17;80.36;97681.66;30001;983;1858;-65
2021/09/23 00:15:34;;;;;;;;;;;;;;;10.16;80.50;97677.31;30001;983;1880;-63
2021/09/23 00:16:05;;;;;;;;;;;;;;;10.13;80.54;97677.84;30001;983;1884;-66
2021/09/23 00:16:36;;;;;;;;;;;;;;;10.13;80.80;97678.66;30001;983;1880;-63
2021/09/23 00:17:08;;;;;;;;;;;;;;;10.13;80.81;97675.16;30001;982;1884;-63
2021/09/23 00:17:38;;;;;;;;;;;;;;;10.14;80.84;97674.88;30001;982;1880;-62
2021/09/23 00:18:13;;;;;;;;;;;;;;;10.13;80.49;97673.25;30001;982;1885;-64
2021/09/23 00:18:44;;;;;;;;;;;;;;;10.14;80.62;97666.75;30001;982;1881;-62
2021/09/23 00:19:15;;;;;;;;;;;;;;;10.16;80.49;97671.91;30001;982;1885;-64
2021/09/23 00:19:46;;;;;;;;;;;;;;;10.17;80.57;97673.53;30001;982;1881;-63
2021/09/23 00:20:21;;;;;;;;;;;;;;;10.17;80.60;97678.94;30001;983;1862;-67
2021/09/23 00:20:52;;;;;;;;;;;;;;;10.17;80.35;97674.34;30001;983;1875;-64
2021/09/23 00:21:23;;;;;;;;;;;;;;;10.18;80.64;97675.97;30001;983;1862;-63
2021/09/23 00:21:54;;;;;;;;;;;;;;;10.19;80.39;97660.50;30001;983;1876;-63
2021/09/23 00:22:24;;;;;;;;;;;;;;;10.21;80.13;97669.22;30001;983;1884;-63
2021/09/23 00:22:56;;;;;;;;;;;;;;;10.21;80.18;97671.94;30001;983;1868;-63
2021/09/23 00:23:27;;;;;;;;;;;;;;;10.20;80.21;97664.88;30001;983;1884;-65
2021/09/23 00:23:58;;;;;;;;;;;;;;;10.20;80.15;97662.97;30001;983;1880;-64
2021/09/23 00:24:28;;;;;;;;;;;;;;;10.20;80.11;97668.41;30001;982;1863;-64
2021/09/23 00:24:59;;;;;;;;;;;;;;;10.21;79.86;97661.09;30001;982;1876;-62
2021/09/23 00:25:31;;;;;;;;;;;;;;;10.21;79.77;97663.78;30001;982;1884;-66
2021/09/23 00:26:02;;;;;;;;;;;;;;;10.22;80.04;97660.00;30001;982;1880;-64
2021/09/23 00:26:32;;;;;;;;;;;;;;;10.23;79.77;97661.63;30001;982;1881;-67
2021/09/23 00:27:03;;;;;;;;;;;;;;;10.24;79.60;97657.84;30001;982;1880;-70
2021/09/23 00:27:34;;;;;;;;;;;;;;;10.24;79.62;97665.97;30001;983;1884;-64
2021/09/23 00:28:07;;;;;;;;;;;;;;;10.25;79.62;97660.28;30001;983;1880;-63
2021/09/23 00:28:38;;;;;;;;;;;;;;;10.25;79.46;97649.44;30001;983;1884;-63
2021/09/23 00:29:09;;;;;;;;;;;;;;;10.25;79.40;97656.75;30001;983;1858;-63
2021/09/23 00:29:40;;;;;;;;;;;;;;;10.23;79.42;97658.91;30001;983;1880;-64
2021/09/23 00:30:12;;;;;;;;;;;;;;;10.23;79.41;97648.88;30001;983;1880;-65
2021/09/23 00:30:43;;;;;;;;;;;;;;;10.22;79.79;97651.88;30001;983;1884;-62
2021/09/23 00:31:14;;;;;;;;;;;;;;;10.21;79.56;97655.66;30001;983;1880;-63
2021/09/23 00:31:45;;;;;;;;;;;;;;;10.20;79.58;97648.59;30001;982;1884;-64
2021/09/23 00:32:16;;;;;;;;;;;;;;;10.19;79.76;97653.22;30001;982;1880;-67
2021/09/23 00:32:49;;;;;;;;;;;;;;;10.19;79.65;97646.94;30001;982;1885;-66
2021/09/23 00:33:22;;;;;;;;;;;;;;;10.20;79.74;97645.91;30001;982;1859;-63
2021/09/23 00:33:52;;;;;;;;;;;;;;;10.19;80.00;97645.09;30001;982;1858;-67
2021/09/23 00:34:23;;;;;;;;;;;;;;;10.19;79.79;97644.22;30001;982;1792;-69
2021/09/23 00:34:54;;;;;;;;;;;;;;;10.19;79.76;97639.66;30001;982;1885;-69
2021/09/23 00:35:26;;;;;;;;;;;;;;;10.20;79.75;97643.19;30001;983;1858;-63
2021/09/23 00:35:57;;;;;;;;;;;;;;;10.20;79.78;97641.28;30001;983;1880;-63
2021/09/23 00:36:30;;;;;;;;;;;;;;;10.19;80.03;97636.94;30001;983;1880;-63
2021/09/23 00:37:01;;;;;;;;;;;;;;;10.20;79.99;97635.88;30001;983;1884;-64
2021/09/23 00:37:32;;;;;;;;;;;;;;;10.21;79.73;97636.69;30001;983;1880;-67
2021/09/23 00:38:03;;;;;;;;;;;;;;;10.19;79.86;97633.38;30001;983;1884;-68
2021/09/23 00:38:34;;;;;;;;;;;;;;;10.20;80.03;97635.03;30001;983;1880;-64
2021/09/23 00:39:05;;;;;;;;;;;;;;;10.19;79.99;97633.38;30001;983;1884;-65
2021/09/23 00:39:36;;;;;;;;;;;;;;;10.21;80.01;97634.78;30001;982;1880;-64
2021/09/23 00:40:10;;;;;;;;;;;;;;;10.21;79.73;97633.97;30001;982;1885;-65
2021/09/23 00:40:41;;;;;;;;;;;;;;;10.21;79.88;97631.25;30001;982;1858;-67
2021/09/23 00:41:12;;;;;;;;;;;;;;;10.19;80.11;97631.53;30001;982;1858;-65
2021/09/23 00:41:43;;;;;;;;;;;;;;;10.20;79.80;97637.75;30001;982;1811;-66
2021/09/23 00:42:13;;;;;;;;;;;;;;;10.23;79.79;97629.09;30001;982;1863;-67
2021/09/23 00:42:47;;;;;;;;;;;;;;;10.21;79.69;97628.53;30001;983;1875;-63
2021/09/23 00:43:18;;;;;;;;;;;;;;;10.23;79.86;97629.09;30001;983;1884;-66
2021/09/23 00:43:49;;;;;;;;;;;;;;;10.23;79.58;97623.66;30001;983;1858;-64
2021/09/23 00:44:22;;;;;;;;;;;;;;;10.22;79.75;97627.44;30001;983;1858;-64
2021/09/23 00:45:00;;;;;;;;;;;;;;;10.20;79.82;97629.63;30001;983;1880;-66
2021/09/23 00:45:31;;;;;;;;;;;;;;;10.18;79.81;97627.16;30001;983;1884;-65
2021/09/23 00:46:02;;;;;;;;;;;;;;;10.17;79.91;97627.41;30001;983;1880;-63
2021/09/23 00:46:34;;;;;;;;;;;;;;;10.15;79.96;97637.72;30001;983;1884;-65
2021/09/23 00:47:05;;;;;;;;;;;;;;;10.15;80.08;97632.31;30001;982;1880;-64
2021/09/23 00:47:37;;;;;;;;;;;;;;;10.15;79.85;97626.88;30001;982;1884;-71
2021/09/23 00:48:08;;;;;;;;;;;;;;;10.13;80.09;97632.56;30001;982;1880;-63
2021/09/23 00:48:38;;;;;;;;;;;;;;;10.13;80.02;97638.00;30001;986;1885;-77
2021/09/23 00:49:09;;;;;;;;;;;;;;;10.16;79.69;97633.94;30001;982;1858;-63
2021/09/23 00:49:40;;;;;;;;;;;;;;;10.15;79.72;97643.16;30001;983;1879;-69
2021/09/23 00:50:12;;;;;;;;;;;;;;;10.14;79.98;97636.09;30001;983;1880;-63
2021/09/23 00:50:44;;;;;;;;;;;;;;;10.13;80.07;97635.28;30001;983;1884;-64
2021/09/23 00:51:16;;;;;;;;;;;;;;;10.14;79.89;97641.53;30001;983;1880;-68
2021/09/23 00:51:47;;;;;;;;;;;;;;;10.13;79.85;97634.47;30001;983;1884;-65
2021/09/23 00:52:20;;;;;;;;;;;;;;;10.13;79.81;97637.19;30001;983;1880;-63
2021/09/23 00:52:51;;;;;;;;;;;;;;;10.10;80.06;97641.25;30001;983;1862;-69
2021/09/23 00:53:22;;;;;;;;;;;;;;;10.05;80.19;97633.91;30001;983;1876;-69
2021/09/23 00:53:53;;;;;;;;;;;;;;;10.05;80.01;97633.91;30001;983;1884;-65
2021/09/23 00:54:24;;;;;;;;;;;;;;;10.04;80.32;97637.75;30001;982;1880;-64
2021/09/23 00:54:55;;;;;;;;;;;;;;;10.03;80.40;97641.53;30001;982;1885;-67
2021/09/23 00:55:26;;;;;;;;;;;;;;;10.01;80.10;97643.72;30001;982;1881;-64
2021/09/23 00:55:58;;;;;;;;;;;;;;;9.99;80.37;97635.03;30001;982;1863;-63
2021/09/23 00:56:29;;;;;;;;;;;;;;;9.98;80.49;97643.44;30001;982;1876;-65
2021/09/23 00:57:00;;;;;;;;;;;;;;;9.94;80.80;97637.75;30001;983;1884;-63
2021/09/23 00:57:31;;;;;;;;;;;;;;;9.92;81.17;97639.91;30001;983;1880;-64
2021/09/23 00:58:03;;;;;;;;;;;;;;;9.91;80.95;97642.88;30001;983;1884;-64
2021/09/23 00:58:34;;;;;;;;;;;;;;;9.91;81.22;97648.31;30001;983;1880;-67
2021/09/23 00:59:05;;;;;;;;;;;;;;;9.88;81.00;97638.81;30001;983;1862;-67
2021/09/23 00:59:36;;;;;;;;;;;;;;;9.88;81.10;97646.13;30001;983;1875;-63
2021/09/23 01:00:08;;;;;;;;;;;;;;;9.85;81.13;97639.34;30001;983;1884;-66
2021/09/23 01:00:39;;;;;;;;;;;;;;;9.84;81.43;97648.56;30001;983;1880;-65
2021/09/23 01:01:10;;;;;;;;;;;;;;;9.83;81.04;97646.13;30001;983;1884;-65
2021/09/23 01:01:45;;;;;;;;;;;;;;;9.81;81.20;97640.97;30001;983;1880;-63
2021/09/23 01:02:16;;;;;;;;;;;;;;;9.81;81.37;97649.09;30001;982;1885;-67
2021/09/23 01:02:47;;;;;;;;;;;;;;;9.82;81.39;97648.03;30001;982;1880;-63
2021/09/23 01:03:18;;;;;;;;;;;;;;;9.81;81.21;97640.97;30001;982;1885;-65
2021/09/23 01:03:49;;;;;;;;;;;;;;;9.80;81.41;97642.06;30001;982;1858;-64
2021/09/23 01:04:20;;;;;;;;;;;;;;;9.79;81.20;97639.59;30001;982;1881;-67
2021/09/23 01:04:51;;;;;;;;;;;;;;;9.78;81.49;97633.38;30001;983;1880;-63
2021/09/23 01:05:21;;;;;;;;;;;;;;;9.79;81.27;97636.91;30001;983;1884;-69
2021/09/23 01:05:53;;;;;;;;;;;;;;;9.78;81.53;97641.50;30001;983;1880;-66
2021/09/23 01:06:24;;;;;;;;;;;;;;;9.79;81.33;97635.00;30001;983;1884;-69
2021/09/23 01:06:54;;;;;;;;;;;;;;;9.79;81.50;97636.91;30001;983;1880;-64
2021/09/23 01:07:25;;;;;;;;;;;;;;;9.77;81.24;97634.47;30001;983;1884;-63
2021/09/23 01:07:57;;;;;;;;;;;;;;;9.78;81.43;97638.78;30001;983;1880;-63
2021/09/23 01:08:27;;;;;;;;;;;;;;;9.80;81.45;97628.50;30001;983;1863;-68
2021/09/23 01:08:59;;;;;;;;;;;;;;;9.80;81.31;97636.63;30001;983;1875;-69
2021/09/23 01:09:36;;;;;;;;;;;;;;;9.79;81.28;97632.28;30001;982;1885;-66
2021/09/23 01:10:07;;;;;;;;;;;;;;;9.79;81.34;97637.72;30001;982;1880;-68
2021/09/23 01:10:38;;;;;;;;;;;;;;;9.79;81.18;97634.19;30001;982;1885;-66
2021/09/23 01:11:09;;;;;;;;;;;;;;;9.79;81.26;97635.00;30001;982;1880;-64
2021/09/23 01:11:40;;;;;;;;;;;;;;;9.79;81.05;97629.59;30001;982;1885;-64
2021/09/23 01:12:11;;;;;;;;;;;;;;;9.80;81.23;97636.63;30001;983;1880;-70
2021/09/23 01:12:44;;;;;;;;;;;;;;;9.80;81.23;97633.91;30001;983;1884;-64
2021/09/23 01:13:16;;;;;;;;;;;;;;;9.80;81.24;97635.81;30001;983;1880;-69
2021/09/23 01:13:46;;;;;;;;;;;;;;;9.83;81.10;97638.00;30001;983;1862;-70
2021/09/23 01:14:17;;;;;;;;;;;;;;;9.83;81.17;97625.25;30001;983;1875;-66
2021/09/23 01:14:49;;;;;;;;;;;;;;;9.84;80.83;97631.47;30001;983;1884;-63
2021/09/23 01:15:19;;;;;;;;;;;;;;;9.82;81.08;97639.06;30001;983;1880;-68
2021/09/23 01:15:50;;;;;;;;;;;;;;;9.81;80.81;97638.25;30001;983;1884;-64
2021/09/23 01:16:21;;;;;;;;;;;;;;;9.81;81.09;97635.53;30001;982;1880;-62
2021/09/23 01:16:52;;;;;;;;;;;;;;;9.80;80.80;97636.63;30001;982;1885;-67
2021/09/23 01:17:23;;;;;;;;;;;;;;;9.80;81.01;97631.22;30001;982;1880;-68
2021/09/23 01:17:55;;;;;;;;;;;;;;;9.80;81.06;97636.63;30001;982;1885;-63
2021/09/23 01:18:25;;;;;;;;;;;;;;;9.78;81.13;97630.66;30001;982;1880;-64
2021/09/23 01:18:56;;;;;;;;;;;;;;;9.76;81.01;97632.81;30001;982;1863;-69
2021/09/23 01:19:27;;;;;;;;;;;;;;;9.75;81.18;97633.91;30001;982;1876;-63
2021/09/23 01:19:58;;;;;;;;;;;;;;;9.74;81.00;97632.28;30001;983;1884;-63
2021/09/23 01:20:29;;;;;;;;;;;;;;;9.74;81.13;97632.28;30001;983;1880;-67
2021/09/23 01:21:00;;;;;;;;;;;;;;;9.72;81.04;97635.25;30001;983;1884;-68
2021/09/23 01:21:31;;;;;;;;;;;;;;;9.71;81.58;97639.06;30001;983;1880;-67
2021/09/23 01:22:02;;;;;;;;;;;;;;;9.69;81.41;97635.00;30001;983;1884;-65
2021/09/23 01:22:33;;;;;;;;;;;;;;;9.68;81.48;97641.50;30001;983;1880;-67
2021/09/23 01:23:03;;;;;;;;;;;;;;;9.66;81.62;97635.53;30001;983;1884;-64
2021/09/23 01:23:41;;;;;;;;;;;;;;;9.65;81.52;97640.16;30001;983;1880;-64
2021/09/23 01:24:12;;;;;;;;;;;;;;;9.66;81.83;97646.37;30001;982;1863;-66
2021/09/23 01:24:43;;;;;;;;;;;;;;;9.66;81.58;97641.78;30001;982;1876;-63
2021/09/23 01:25:16;;;;;;;;;;;;;;;9.65;81.55;97640.16;30001;982;1885;-64
2021/09/23 01:25:46;;;;;;;;;;;;;;;9.68;81.73;97649.62;30001;982;1880;-63
2021/09/23 01:26:20;;;;;;;;;;;;;;;9.66;81.58;97635.53;30001;982;1885;-65
2021/09/23 01:26:51;;;;;;;;;;;;;;;9.65;81.61;97639.34;30001;982;1880;-62
2021/09/23 01:27:22;;;;;;;;;;;;;;;9.62;82.00;97635.25;30001;983;1884;-68
2021/09/23 01:27:52;;;;;;;;;;;;;;;9.62;82.14;97637.16;30001;983;1880;-63
2021/09/23 01:28:23;;;;;;;;;;;;;;;9.61;81.81;97640.94;30001;983;1884;-64
2021/09/23 01:28:54;;;;;;;;;;;;;;;9.60;82.19;97636.63;30001;983;1880;-68
2021/09/23 01:29:27;;;;;;;;;;;;;;;9.59;82.17;97635.78;30001;983;1862;-63
2021/09/23 01:29:58;;;;;;;;;;;;;;;9.59;82.28;97634.97;30001;983;1876;-63
2021/09/23 01:30:29;;;;;;;;;;;;;;;9.58;82.24;97630.66;30001;983;1885;-67
2021/09/23 01:31:01;;;;;;;;;;;;;;;9.57;82.22;97629.00;30001;983;1880;-66
2021/09/23 01:31:32;;;;;;;;;;;;;;;9.57;82.02;97631.72;30001;982;1885;-64
2021/09/23 01:32:05;;;;;;;;;;;;;;;9.58;82.26;97630.66;30001;982;1880;-67
2021/09/23 01:32:36;;;;;;;;;;;;;;;9.58;82.20;97633.34;30001;982;1885;-67
2021/09/23 01:33:07;;;;;;;;;;;;;;;9.59;82.00;97630.37;30001;982;1880;-67
2021/09/23 01:33:38;;;;;;;;;;;;;;;9.59;81.96;97629.56;30001;982;1885;-63
2021/09/23 01:34:10;;;;;;;;;;;;;;;9.61;82.14;97621.97;30001;982;1881;-62
2021/09/23 01:34:41;;;;;;;;;;;;;;;9.61;82.14;97632.81;30001;983;1862;-64
2021/09/23 01:35:12;;;;;;;;;;;;;;;9.62;81.97;97631.75;30001;983;1875;-64
2021/09/23 01:35:43;;;;;;;;;;;;;;;9.62;81.84;97619.00;30001;983;1884;-63
2021/09/23 01:36:13;;;;;;;;;;;;;;;9.63;81.94;97628.75;30001;983;1880;-66
2021/09/23 01:36:45;;;;;;;;;;;;;;;9.63;81.80;97622.53;30001;983;1884;-68
2021/09/23 01:37:16;;;;;;;;;;;;;;;9.63;82.03;97625.25;30001;983;1880;-68
2021/09/23 01:37:48;;;;;;;;;;;;;;;9.62;81.68;97623.63;30001;983;1884;-67
2021/09/23 01:38:19;;;;;;;;;;;;;;;9.61;81.92;97627.41;30001;983;1880;-66
2021/09/23 01:38:52;;;;;;;;;;;;;;;9.59;81.68;97626.84;30001;982;1885;-67
2021/09/23 01:39:23;;;;;;;;;;;;;;;9.58;81.84;97625.22;30001;982;1859;-62
2021/09/23 01:39:54;;;;;;;;;;;;;;;9.57;82.07;97626.31;30001;982;1880;-69
2021/09/23 01:40:26;;;;;;;;;;;;;;;9.56;82.21;97625.50;30001;982;1880;-68
2021/09/23 01:40:57;;;;;;;;;;;;;;;9.56;81.98;97619.25;30001;982;1885;-64
2021/09/23 01:41:28;;;;;;;;;;;;;;;9.56;82.20;97624.69;30001;982;1881;-67
2021/09/23 01:41:58;;;;;;;;;;;;;;;9.56;81.92;97624.69;30001;982;1885;-67
2021/09/23 01:42:29;;;;;;;;;;;;;;;9.56;82.24;97630.09;30001;983;1880;-67
2021/09/23 01:43:00;;;;;;;;;;;;;;;9.55;82.04;97628.47;30001;983;1884;-68
2021/09/23 01:43:31;;;;;;;;;;;;;;;9.57;82.12;97631.72;30001;983;1880;-63
2021/09/23 01:44:02;;;;;;;;;;;;;;;9.54;82.27;97624.13;30001;983;1884;-67
2021/09/23 01:44:33;;;;;;;;;;;;;;;9.53;82.29;97620.59;30001;983;1858;-66
2021/09/23 01:45:05;;;;;;;;;;;;;;;9.52;82.28;97626.28;30001;983;1880;-68
2021/09/23 01:45:37;;;;;;;;;;;;;;;9.51;82.51;97627.38;30001;983;1880;-69
2021/09/23 01:46:08;;;;;;;;;;;;;;;9.49;82.07;97621.41;30001;983;1884;-63
2021/09/23 01:46:42;;;;;;;;;;;;;;;9.50;82.49;97628.47;30001;982;1880;-68
2021/09/23 01:47:13;;;;;;;;;;;;;;;9.49;82.48;97626.81;30001;982;1863;-64
2021/09/23 01:47:43;;;;;;;;;;;;;;;9.49;82.62;97629.53;30001;982;1876;-67
2021/09/23 01:48:15;;;;;;;;;;;;;;;9.48;82.44;97627.91;30001;982;1885;-63
2021/09/23 01:48:46;;;;;;;;;;;;;;;9.48;82.69;97627.91;30001;982;1880;-67
2021/09/23 01:49:17;;;;;;;;;;;;;;;9.47;82.47;97629.00;30001;983;1884;-67
2021/09/23 01:49:48;;;;;;;;;;;;;;;9.45;82.53;97631.16;30001;983;1858;-66
2021/09/23 01:50:19;;;;;;;;;;;;;;;9.44;82.48;97627.62;30001;983;1880;-63
2021/09/23 01:50:51;;;;;;;;;;;;;;;9.44;82.87;97635.75;30001;983;1880;-67
2021/09/23 01:51:21;;;;;;;;;;;;;;;9.44;82.95;97632.22;30001;983;1884;-67
2021/09/23 01:51:52;;;;;;;;;;;;;;;9.44;82.88;97632.22;30001;983;1880;-66
2021/09/23 01:52:23;;;;;;;;;;;;;;;9.42;82.95;97635.19;30001;983;1884;-67
2021/09/23 01:52:54;;;;;;;;;;;;;;;9.40;83.09;97632.75;30001;983;1880;-62
2021/09/23 01:53:25;;;;;;;;;;;;;;;9.38;83.01;97632.22;30001;983;1884;-65
2021/09/23 01:53:59;;;;;;;;;;;;;;;9.38;83.52;97636.81;30001;982;1880;-62
2021/09/23 01:54:30;;;;;;;;;;;;;;;9.35;83.36;97631.97;30001;982;1885;-63
2021/09/23 01:55:01;;;;;;;;;;;;;;;9.33;83.27;97626.81;30001;982;1858;-67
2021/09/23 01:55:32;;;;;;;;;;;;;;;9.32;83.24;97627.88;30001;982;1858;-66
2021/09/23 01:56:03;;;;;;;;;;;;;;;9.32;83.54;97630.59;30001;982;1880;-63
2021/09/23 01:56:34;;;;;;;;;;;;;;;9.31;83.39;97623.56;30001;983;1884;-66
2021/09/23 01:57:06;;;;;;;;;;;;;;;9.31;83.20;97628.16;30001;983;1880;-64
2021/09/23 01:57:37;;;;;;;;;;;;;;;9.30;83.46;97623.81;30001;983;1884;-64
2021/09/23 01:58:08;;;;;;;;;;;;;;;9.30;83.55;97623.81;30001;983;1880;-67
2021/09/23 01:58:39;;;;;;;;;;;;;;;9.27;83.59;97622.44;30001;983;1884;-63
2021/09/23 01:59:11;;;;;;;;;;;;;;;9.25;83.99;97627.31;30001;983;1880;-62
2021/09/23 01:59:42;;;;;;;;;;;;;;;9.24;83.54;97622.16;30001;983;1884;-63
2021/09/23 02:00:13;;;;;;;;;;;;;;;9.24;84.00;97622.97;30001;983;1880;-66
2021/09/23 02:00:44;;;;;;;;;;;;;;;9.22;84.01;97619.72;30001;983;1863;-64
2021/09/23 02:01:15;;;;;;;;;;;;;;;9.21;84.15;97623.50;30001;983;1876;-68
2021/09/23 02:01:46;;;;;;;;;;;;;;;9.21;83.92;97622.69;30001;982;1885;-67
2021/09/23 02:02:17;;;;;;;;;;;;;;;9.21;83.86;97617.28;30001;982;1880;-66
2021/09/23 02:02:50;;;;;;;;;;;;;;;9.19;84.01;97619.44;30001;986;1885;-64
2021/09/23 02:03:21;;;;;;;;;;;;;;;9.19;84.17;97614.03;30001;982;1881;-68
2021/09/23 02:03:55;;;;;;;;;;;;;;;9.18;84.17;97613.22;30001;982;1885;-67
2021/09/23 02:04:26;;;;;;;;;;;;;;;9.19;84.16;97614.03;30001;983;1880;-63
2021/09/23 02:04:56;;;;;;;;;;;;;;;9.17;83.78;97608.88;30001;983;1884;-63
2021/09/23 02:05:27;;;;;;;;;;;;;;;9.18;84.09;97613.22;30001;983;1880;-64
2021/09/23 02:05:58;;;;;;;;;;;;;;;9.20;83.87;97616.47;30001;983;1862;-67
2021/09/23 02:06:30;;;;;;;;;;;;;;;9.20;84.03;97608.34;30001;983;1875;-67
2021/09/23 02:07:01;;;;;;;;;;;;;;;9.21;83.88;97615.37;30001;983;1884;-67
2021/09/23 02:07:32;;;;;;;;;;;;;;;9.20;83.88;97611.06;30001;983;1880;-67
2021/09/23 02:08:03;;;;;;;;;;;;;;;9.20;83.57;97612.94;30001;983;1884;-68
2021/09/23 02:08:34;;;;;;;;;;;;;;;9.21;83.72;97606.44;30001;983;1880;-68
2021/09/23 02:09:05;;;;;;;;;;;;;;;9.24;83.64;97611.34;30001;982;1885;-67
2021/09/23 02:09:39;;;;;;;;;;;;;;;9.25;83.69;97602.94;30001;982;1880;-63
2021/09/23 02:10:11;;;;;;;;;;;;;;;9.25;83.54;97602.94;30001;982;1885;-69
2021/09/23 02:10:43;;;;;;;;;;;;;;;9.25;83.34;97608.37;30001;982;1859;-63
2021/09/23 02:11:14;;;;;;;;;;;;;;;9.25;83.43;97602.13;30001;982;1880;-67
2021/09/23 02:11:48;;;;;;;;;;;;;;;9.26;83.37;97610.00;30001;983;1858;-63
2021/09/23 02:12:21;;;;;;;;;;;;;;;9.27;83.37;97605.38;30001;983;1880;-70
2021/09/23 02:12:56;;;;;;;;;;;;;;;9.28;83.13;97610.53;30001;983;1880;-68
2021/09/23 02:13:26;;;;;;;;;;;;;;;9.27;83.13;97603.50;30001;983;1884;-67
2021/09/23 02:13:57;;;;;;;;;;;;;;;9.29;83.31;97604.03;30001;983;1880;-68
2021/09/23 02:14:29;;;;;;;;;;;;;;;9.30;82.92;97605.66;30001;983;1862;-69
2021/09/23 02:15:03;;;;;;;;;;;;;;;9.31;83.15;97610.00;30001;983;1876;-67
2021/09/23 02:15:34;;;;;;;;;;;;;;;9.30;82.78;97615.69;30001;983;1884;-68
2021/09/23 02:16:05;;;;;;;;;;;;;;;9.30;83.26;97605.66;30001;982;1880;-67
2021/09/23 02:16:36;;;;;;;;;;;;;;;9.28;83.09;97602.41;30001;982;1885;-66
2021/09/23 02:17:06;;;;;;;;;;;;;;;9.29;83.27;97608.66;30001;982;1880;-66
2021/09/23 02:17:37;;;;;;;;;;;;;;;9.27;83.41;97606.22;30001;982;1885;-67
2021/09/23 02:18:10;;;;;;;;;;;;;;;9.27;83.51;97611.62;30001;982;1880;-64
2021/09/23 02:18:41;;;;;;;;;;;;;;;9.25;83.25;97602.94;30001;982;1885;-66
2021/09/23 02:19:12;;;;;;;;;;;;;;;9.25;83.68;97608.37;30001;983;1858;-67
2021/09/23 02:19:43;;;;;;;;;;;;;;;9.24;83.21;97606.72;30001;983;1880;-64
2021/09/23 02:20:14;;;;;;;;;;;;;;;9.24;83.79;97612.16;30001;983;1880;-65
2021/09/23 02:20:45;;;;;;;;;;;;;;;9.22;83.80;97603.47;30001;983;1884;-66
2021/09/23 02:21:16;;;;;;;;;;;;;;;9.22;83.37;97608.91;30001;986;1858;-66
2021/09/23 02:21:48;;;;;;;;;;;;;;;9.21;83.54;97601.03;30001;983;1880;-66
2021/09/23 02:22:19;;;;;;;;;;;;;;;9.20;83.64;97605.63;30001;983;1880;-62
2021/09/23 02:22:50;;;;;;;;;;;;;;;9.18;83.39;97602.38;30001;978;1888;-64
2021/09/23 02:23:22;;;;;;;;;;;;;;;9.18;83.53;97596.97;30001;982;1880;-63
2021/09/23 02:23:53;;;;;;;;;;;;;;;9.17;83.28;97602.66;30001;982;1885;-67
2021/09/23 02:24:23;;;;;;;;;;;;;;;9.17;83.54;97600.75;30001;982;1880;-67
2021/09/23 02:24:55;;;;;;;;;;;;;;;9.17;83.48;97603.47;30001;982;1885;-63
2021/09/23 02:25:30;;;;;;;;;;;;;;;9.18;83.31;97596.97;30001;982;1858;-66
2021/09/23 02:26:01;;;;;;;;;;;;;;;9.17;83.23;97589.91;30001;982;1880;-65
2021/09/23 02:26:31;;;;;;;;;;;;;;;9.17;83.47;97595.34;30001;982;1881;-62
2021/09/23 02:27:04;;;;;;;;;;;;;;;9.15;83.50;97586.66;30001;983;1862;-67
2021/09/23 02:27:35;;;;;;;;;;;;;;;9.15;83.26;97586.66;30001;983;1875;-63
2021/09/23 02:28:06;;;;;;;;;;;;;;;9.15;83.29;97589.38;30001;983;1884;-68
2021/09/23 02:28:38;;;;;;;;;;;;;;;9.16;83.58;97587.47;30001;983;1880;-62
2021/09/23 02:29:09;;;;;;;;;;;;;;;9.16;83.44;97588.28;30001;983;1883;-66
2021/09/23 02:29:40;;;;;;;;;;;;;;;9.16;83.34;97582.88;30001;983;1880;-63
2021/09/23 02:30:12;;;;;;;;;;;;;;;9.16;83.54;97582.06;30001;983;1884;-67
2021/09/23 02:30:43;;;;;;;;;;;;;;;9.15;83.59;97586.66;30001;983;1880;-67
2021/09/23 02:31:16;;;;;;;;;;;;;;;9.13;83.45;97578.00;30001;982;1863;-68
2021/09/23 02:31:47;;;;;;;;;;;;;;;9.14;83.48;97578.81;30001;982;1876;-63
2021/09/23 02:32:18;;;;;;;;;;;;;;;9.15;83.47;97575.03;30001;982;1885;-66
2021/09/23 02:32:49;;;;;;;;;;;;;;;9.16;83.76;97588.28;30001;982;1880;-63
2021/09/23 02:33:19;;;;;;;;;;;;;;;9.16;83.40;97577.47;30001;982;1885;-67
2021/09/23 02:33:50;;;;;;;;;;;;;;;9.16;83.82;97582.06;30001;982;1881;-64
2021/09/23 02:34:21;;;;;;;;;;;;;;;9.15;83.58;97581.25;30001;983;1884;-62
2021/09/23 02:34:52;;;;;;;;;;;;;;;9.16;83.46;97580.16;30001;983;1858;-63
2021/09/23 02:35:23;;;;;;;;;;;;;;;9.16;83.46;97587.47;30001;983;1880;-68
2021/09/23 02:35:54;;;;;;;;;;;;;;;9.16;83.71;97582.88;30001;983;1880;-67
2021/09/23 02:36:25;;;;;;;;;;;;;;;9.17;83.58;97583.69;30001;983;1884;-63
2021/09/23 02:36:56;;;;;;;;;;;;;;;9.17;83.56;97583.69;30001;983;1880;-64
2021/09/23 02:37:27;;;;;;;;;;;;;;;9.17;83.46;97579.09;30001;983;1884;-68
2021/09/23 02:38:01;;;;;;;;;;;;;;;9.19;83.73;97581.53;30001;983;1858;-68
2021/09/23 02:38:32;;;;;;;;;;;;;;;9.19;83.59;97573.41;30001;982;1880;-67
2021/09/23 02:39:03;;;;;;;;;;;;;;;9.19;83.81;97576.94;30001;982;1880;-67
2021/09/23 02:39:35;;;;;;;;;;;;;;;9.20;83.60;97573.16;30001;982;1885;-69
2021/09/23 02:40:08;;;;;;;;;;;;;;;9.21;83.55;97574.78;30001;982;1881;-67
2021/09/23 02:40:40;;;;;;;;;;;;;;;9.22;83.64;97573.69;30001;982;1885;-67
2021/09/23 02:41:11;;;;;;;;;;;;;;;9.23;83.70;97574.50;30001;972;1900;-67
2021/09/23 02:41:41;;;;;;;;;;;;;;;9.24;83.61;97574.25;30001;982;1811;-67
2021/09/23 02:42:12;;;;;;;;;;;;;;;9.25;83.69;97575.88;30001;983;1880;-62
2021/09/23 02:42:43;;;;;;;;;;;;;;;9.27;83.66;97568.28;30001;961;1887;-67
2021/09/23 02:43:14;;;;;;;;;;;;;;;9.27;83.75;97576.41;30001;983;1875;-66
2021/09/23 02:43:45;;;;;;;;;;;;;;;9.28;83.61;97575.34;30001;983;1884;-68
2021/09/23 02:44:16;;;;;;;;;;;;;;;9.30;83.71;97570.47;30001;983;1880;-67
2021/09/23 02:44:47;;;;;;;;;;;;;;;9.30;83.34;97570.47;30001;983;1862;-67
2021/09/23 02:45:18;;;;;;;;;;;;;;;9.32;83.59;97571.00;30001;983;1876;-67
2021/09/23 02:45:48;;;;;;;;;;;;;;;9.31;83.37;97571.28;30001;983;1884;-66
2021/09/23 02:46:19;;;;;;;;;;;;;;;9.32;83.56;97573.72;30001;982;1880;-67
2021/09/23 02:46:50;;;;;;;;;;;;;;;9.33;83.26;97569.94;30001;982;1885;-63
2021/09/23 02:47:26;;;;;;;;;;;;;;;9.34;83.33;97568.84;30001;982;1880;-63
2021/09/23 02:47:57;;;;;;;;;;;;;;;9.35;83.55;97565.06;30001;982;1863;-62
2021/09/23 02:48:27;;;;;;;;;;;;;;;9.36;83.64;97566.66;30001;983;1875;-63
2021/09/23 02:48:59;;;;;;;;;;;;;;;9.37;83.37;97562.87;30001;983;1793;-63
2021/09/23 02:49:30;;;;;;;;;;;;;;;9.39;83.35;97566.12;30001;983;1880;-68
2021/09/23 02:50:01;;;;;;;;;;;;;;;9.40;83.10;97559.63;30001;983;1884;-67
2021/09/23 02:50:32;;;;;;;;;;;;;;;9.41;83.07;97558.53;30001;983;1880;-64
2021/09/23 02:51:05;;;;;;;;;;;;;;;9.41;83.25;97561.25;30001;983;1884;-68
2021/09/23 02:51:36;;;;;;;;;;;;;;;9.44;83.28;97561.81;30001;983;1880;-68